createdAt,value
2022-08-10T00:01:53.143Z,2.60
2022-08-10T00:04:24.263Z,2.70
2022-08-10T00:06:52.652Z,2.45
2022-08-10T00:09:21.912Z,2.22
2022-08-10T00:11:48.769Z,2.33
2022-08-10T00:14:15.363Z,2.60
2022-08-10T00:16:41.885Z,2.60
2022-08-10T00:19:08.333Z,2.67
2022-08-10T00:21:36.700Z,2.72
2022-08-10T00:24:03.874Z,2.42
2022-08-10T00:27:52.172Z,2.40
2022-08-10T00:29:17.114Z,2.65
2022-08-10T00:31:58.058Z,2.60
2022-08-10T00:34:25.515Z,3.13
2022-08-10T00:36:52.028Z,2.92
2022-08-10T00:39:18.587Z,3.00
2022-08-10T00:41:45.677Z,2.78
2022-08-10T00:44:28.073Z,2.95
2022-08-10T00:46:54.823Z,3.03
2022-08-10T00:49:21.424Z,3.42
2022-08-10T00:51:48.564Z,3.00
2022-08-10T00:54:24.588Z,3.42
2022-08-10T00:57:16.364Z,2.90
2022-08-10T00:59:58.874Z,2.90
2022-08-10T01:02:25.365Z,3.40
2022-08-10T01:05:00.243Z,3.28
2022-08-10T01:07:42.795Z,3.15
2022-08-10T01:10:24.449Z,3.28
2022-08-10T01:12:56.614Z,3.13
2022-08-10T01:15:43.410Z,3.50
2022-08-10T01:18:18.215Z,3.70
2022-08-10T01:20:57.517Z,3.33
2022-08-10T01:23:27.415Z,3.65
2022-08-10T01:26:12.391Z,3.45
2022-08-10T01:29:20.559Z,3.13
2022-08-10T01:31:51.316Z,3.43
2022-08-10T01:34:24.718Z,3.45
2022-08-10T01:37:03.361Z,3.45
2022-08-10T01:39:40.259Z,3.20
2022-08-10T01:42:14.484Z,3.63
2022-08-10T01:44:48.070Z,3.60
2022-08-10T01:47:36.775Z,3.15
2022-08-10T01:50:09.892Z,3.33
2022-08-10T01:52:44.577Z,3.03
2022-08-10T01:55:13.418Z,3.92
2022-08-10T01:57:42.333Z,3.55
2022-08-10T02:00:10.400Z,3.22
2022-08-10T02:02:37.965Z,4.68
2022-08-10T02:05:11.302Z,3.58
2022-08-10T02:07:40.559Z,3.78
2022-08-10T02:10:11.380Z,4.07
2022-08-10T02:12:39.594Z,3.70
2022-08-10T02:15:14.954Z,3.55
2022-08-10T02:23:04.418Z,3.60
2022-08-10T02:25:42.715Z,3.67
2022-08-10T02:28:27.165Z,3.55
2022-08-10T02:31:01.390Z,3.70
2022-08-10T02:33:29.837Z,3.38
2022-08-10T02:36:00.823Z,3.92
2022-08-10T02:38:58.937Z,3.60
2022-08-10T02:45:02.555Z,4.00
2022-08-10T02:45:24.327Z,4.00
2022-08-10T02:47:51.160Z,3.85
2022-08-10T02:50:39.980Z,3.60
2022-08-10T02:53:54.566Z,4.25
2022-08-10T02:56:12.973Z,4.10
2022-08-10T02:58:51.192Z,3.95
2022-08-10T03:01:21.948Z,3.83
2022-08-10T03:04:03.964Z,4.68
2022-08-10T03:06:38.593Z,4.10
2022-08-10T03:09:08.759Z,3.85
2022-08-10T03:12:35.879Z,3.60
2022-08-10T03:14:25.320Z,3.88
2022-08-10T03:16:54.405Z,4.38
2022-08-10T03:20:35.738Z,4.22
2022-08-10T03:22:19.135Z,3.88
2022-08-10T03:24:46.132Z,3.90
2022-08-10T03:27:17.051Z,4.00
2022-08-10T03:30:28.296Z,4.38
2022-08-10T03:32:31.042Z,4.20
2022-08-10T03:34:59.767Z,4.18
2022-08-10T03:37:27.537Z,4.10
2022-08-10T03:40:00.215Z,4.05
2022-08-10T03:42:31.253Z,4.57
2022-08-10T03:44:59.118Z,3.92
2022-08-10T03:47:29.351Z,4.07
2022-08-10T03:49:58.068Z,4.03
2022-08-10T03:52:30.755Z,4.00
2022-08-10T03:54:58.815Z,4.47
2022-08-10T03:57:30.645Z,4.20
2022-08-10T04:00:01.336Z,4.22
2022-08-10T04:02:42.034Z,3.90
2022-08-10T04:05:19.386Z,4.78
2022-08-10T04:07:46.218Z,4.40
2022-08-10T04:10:14.199Z,4.50
2022-08-10T04:12:40.698Z,4.38
2022-08-10T04:15:10.548Z,4.50
2022-08-10T04:18:02.968Z,4.03
2022-08-10T04:20:26.389Z,4.47
2022-08-10T04:23:06.550Z,4.40
2022-08-10T04:25:36.472Z,4.65
2022-08-10T04:28:03.653Z,3.90
2022-08-10T04:30:32.177Z,4.43
2022-08-10T04:33:06.336Z,4.63
2022-08-10T04:35:33.828Z,4.95
2022-08-10T04:38:02.066Z,4.90
2022-08-10T04:40:30.937Z,4.93
2022-08-10T04:43:10.385Z,4.75
2022-08-10T04:45:48.971Z,4.57
2022-08-10T04:48:42.743Z,4.90
2022-08-10T04:51:05.008Z,4.82
2022-08-10T04:53:34.028Z,4.78
2022-08-10T04:56:20.507Z,4.38
2022-08-10T04:58:57.845Z,4.60
2022-08-10T05:01:25.001Z,5.43
2022-08-10T05:04:38.412Z,5.03
2022-08-10T05:06:38.134Z,4.30
2022-08-10T05:09:04.672Z,4.93
2022-08-10T05:11:31.170Z,6.05
2022-08-10T05:13:57.673Z,4.85
2022-08-10T05:16:32.340Z,4.28
2022-08-10T05:18:59.468Z,5.07
2022-08-10T05:22:03.160Z,5.35
2022-08-10T05:24:12.500Z,4.85
2022-08-10T05:26:55.128Z,4.90
2022-08-10T05:29:25.555Z,4.75
2022-08-10T05:31:52.452Z,5.28
2022-08-10T05:34:20.763Z,5.30
2022-08-10T05:36:48.328Z,5.10
2022-08-10T05:39:19.105Z,5.82
2022-08-10T05:41:57.881Z,4.75
2022-08-10T05:44:31.455Z,6.05
2022-08-10T05:47:00.925Z,7.18
2022-08-10T05:49:27.497Z,5.10
2022-08-10T05:51:54.127Z,5.07
2022-08-10T05:54:20.681Z,5.10
2022-08-10T05:56:54.727Z,5.28
2022-08-10T06:00:35.541Z,5.70
2022-08-10T06:02:36.832Z,5.55
2022-08-10T06:05:24.142Z,5.47
2022-08-10T06:07:56.663Z,5.18
2022-08-10T06:10:31.569Z,4.97
2022-08-10T06:13:30.194Z,6.35
2022-08-10T06:16:04.527Z,6.32
2022-08-10T06:18:31.187Z,5.78
2022-08-10T06:20:58.040Z,4.95
2022-08-10T06:23:28.366Z,5.82
2022-08-10T06:26:09.708Z,5.65
2022-08-10T06:28:54.020Z,5.65
2022-08-10T06:31:35.638Z,5.53
2022-08-10T06:34:24.297Z,5.07
2022-08-10T06:36:53.165Z,5.78
2022-08-10T06:39:33.480Z,5.18
2022-08-10T06:42:32.597Z,4.82
2022-08-10T06:45:09.857Z,4.45
2022-08-10T06:47:43.456Z,5.05
2022-08-10T06:50:44.904Z,5.07
2022-08-10T06:53:19.283Z,4.85
2022-08-10T06:55:56.362Z,4.57
2022-08-10T06:58:26.889Z,4.45
2022-08-10T07:00:55.505Z,4.65
2022-08-10T07:03:28.058Z,4.70
2022-08-10T07:05:57.662Z,4.38
2022-08-10T07:08:26.862Z,5.05
2022-08-10T07:10:54.490Z,4.63
2022-08-10T07:14:17.080Z,4.93
2022-08-10T07:16:11.478Z,4.93
2022-08-10T07:18:42.793Z,4.80
2022-08-10T07:21:10.680Z,4.40
2022-08-10T07:23:58.155Z,4.25
2022-08-10T07:26:28.819Z,4.38
2022-08-10T07:28:55.910Z,3.83
2022-08-10T07:31:54.377Z,4.15
2022-08-10T07:34:21.682Z,3.97
2022-08-10T07:36:58.807Z,3.90
2022-08-10T07:40:04.049Z,3.95
2022-08-10T07:42:21.356Z,3.67
2022-08-10T07:44:48.501Z,4.20
2022-08-10T07:47:18.976Z,3.83
2022-08-10T07:50:08.585Z,3.50
2022-08-10T07:52:37.952Z,3.85
2022-08-10T07:55:10.239Z,3.70
2022-08-10T07:57:44.495Z,4.00
2022-08-10T08:00:12.304Z,3.90
2022-08-10T08:02:46.183Z,4.05
2022-08-10T08:05:38.566Z,4.75
2022-08-10T08:08:03.328Z,3.50
2022-08-10T08:10:34.248Z,4.32
2022-08-10T08:13:08.439Z,4.32
2022-08-10T08:16:20.202Z,3.97
2022-08-10T08:18:25.243Z,3.47
2022-08-10T08:20:54.353Z,3.63
2022-08-10T08:24:30.801Z,3.88
2022-08-10T08:26:17.249Z,3.70
2022-08-10T08:28:45.783Z,4.55
2022-08-10T08:31:17.792Z,3.90
2022-08-10T08:33:45.546Z,4.10
2022-08-10T08:36:16.253Z,4.15
2022-08-10T08:38:43.348Z,3.55
2022-08-10T08:41:53.490Z,3.63
2022-08-10T08:45:07.527Z,3.85
2022-08-10T08:48:04.644Z,3.90
2022-08-10T08:50:50.939Z,3.80
2022-08-10T08:54:03.054Z,3.45
2022-08-10T08:57:00.932Z,3.25
2022-08-10T08:59:54.869Z,4.25
2022-08-10T09:02:31.197Z,3.92
2022-08-10T09:05:58.407Z,3.28
2022-08-10T09:08:49.060Z,3.40
2022-08-10T09:12:03.106Z,3.60
2022-08-10T09:14:49.214Z,3.25
2022-08-10T09:17:40.735Z,3.13
2022-08-10T09:20:29.781Z,4.32
2022-08-10T09:23:03.490Z,3.22
2022-08-10T09:25:36.545Z,3.10
2022-08-10T09:28:05.875Z,3.35
2022-08-10T09:30:52.430Z,3.10
2022-08-10T09:36:20.495Z,3.35
2022-08-10T09:36:47.782Z,3.03
2022-08-10T09:40:12.495Z,3.20
2022-08-10T09:42:32.430Z,3.22
2022-08-10T09:45:46.275Z,3.40
2022-08-10T09:48:45.578Z,3.60
2022-08-10T09:51:53.697Z,3.38
2022-08-10T09:54:35.402Z,3.72
2022-08-10T10:00:12.656Z,3.63
2022-08-10T10:03:02.908Z,3.10
2022-08-10T10:05:51.834Z,3.05
2022-08-10T10:08:21.993Z,3.00
2022-08-10T10:11:03.827Z,3.53
2022-08-10T10:14:01.870Z,3.50
2022-08-10T10:16:52.355Z,3.58
2022-08-10T10:19:43.604Z,3.10
2022-08-10T10:22:38.244Z,2.78
2022-08-10T10:25:19.810Z,2.97
2022-08-10T10:27:53.819Z,3.83
2022-08-10T10:30:24.809Z,3.30
2022-08-10T10:33:10.582Z,3.30
2022-08-10T10:35:57.002Z,3.30
2022-08-10T10:38:32.473Z,3.63
2022-08-10T10:41:55.677Z,3.85
2022-08-10T10:44:42.416Z,3.28
2022-08-10T10:47:30.831Z,3.15
2022-08-10T10:50:15.591Z,3.28
2022-08-10T10:53:19.025Z,3.08
2022-08-10T10:56:15.447Z,3.42
2022-08-10T10:58:49.451Z,3.10
2022-08-10T11:01:21.925Z,3.08
2022-08-10T11:04:01.227Z,3.75
2022-08-10T11:06:52.077Z,3.08
2022-08-10T11:10:04.505Z,2.95
2022-08-10T11:12:37.769Z,3.03
2022-08-10T11:15:24.225Z,2.92
2022-08-10T11:17:57.818Z,2.78
2022-08-10T11:20:33.180Z,2.75
2022-08-10T11:23:24.647Z,2.97
2022-08-10T11:26:09.199Z,2.90
2022-08-10T11:29:02.905Z,2.50
2022-08-10T11:31:46.512Z,2.58
2022-08-10T11:34:47.383Z,2.30
2022-08-10T11:37:27.112Z,2.47
2022-08-10T11:40:01.605Z,2.25
2022-08-10T11:42:41.890Z,2.30
2022-08-10T11:45:24.237Z,3.20
2022-08-10T11:47:53.596Z,2.28
2022-08-10T11:50:23.115Z,2.30
2022-08-10T11:52:49.633Z,2.53
2022-08-10T11:55:22.306Z,2.10
2022-08-10T11:57:54.031Z,2.22
2022-08-10T12:00:24.063Z,2.13
2022-08-10T12:02:55.389Z,2.55
2022-08-10T12:05:54.407Z,2.47
2022-08-10T12:10:05.465Z,2.50
2022-08-10T12:11:08.929Z,2.30
2022-08-10T12:13:58.694Z,2.67
2022-08-10T12:16:38.394Z,2.63
2022-08-10T12:19:18.510Z,2.33
2022-08-10T12:21:50.522Z,2.85
2022-08-10T12:24:25.956Z,2.53
2022-08-10T12:27:07.589Z,2.80
2022-08-10T12:29:42.908Z,2.58
2022-08-10T12:32:17.950Z,2.63
2022-08-10T12:35:17.210Z,2.80
2022-08-10T12:38:22.551Z,2.47
2022-08-10T12:40:55.904Z,2.53
2022-08-10T12:44:07.586Z,2.42
2022-08-10T12:46:31.291Z,2.13
2022-08-10T12:49:11.753Z,2.20
2022-08-10T12:51:53.345Z,1.90
2022-08-10T12:54:31.833Z,2.40
2022-08-10T12:57:03.053Z,1.85
2022-08-10T12:59:31.564Z,2.47
2022-08-10T13:02:06.809Z,2.20
2022-08-10T13:04:40.344Z,2.10
2022-08-10T13:07:08.719Z,2.00
2022-08-10T13:09:54.026Z,2.10
2022-08-10T13:12:34.957Z,2.08
2022-08-10T13:15:45.867Z,1.95
2022-08-10T13:18:06.882Z,2.05
2022-08-10T13:20:51.540Z,2.13
2022-08-10T13:23:24.453Z,1.95
2022-08-10T13:25:52.222Z,1.85
2022-08-10T13:28:37.101Z,2.08
2022-08-10T13:31:16.998Z,1.83
2022-08-10T13:34:41.144Z,2.35
2022-08-10T13:36:46.329Z,1.88
2022-08-10T13:39:14.475Z,2.13
2022-08-10T13:41:44.118Z,2.08
2022-08-10T13:44:15.457Z,2.10
2022-08-10T13:46:50.110Z,2.13
2022-08-10T13:49:19.008Z,1.85
2022-08-10T13:51:57.676Z,1.92
2022-08-10T13:54:36.016Z,1.95
2022-08-10T13:57:04.636Z,2.00
2022-08-10T14:00:33.998Z,2.05
2022-08-10T14:02:31.176Z,1.90
2022-08-10T14:04:59.326Z,2.08
2022-08-10T14:07:27.547Z,2.22
2022-08-10T14:10:04.839Z,1.50
2022-08-10T14:12:33.677Z,1.80
2022-08-10T14:15:03.124Z,1.80
2022-08-10T14:17:30.550Z,1.90
2022-08-10T14:20:03.370Z,1.83
2022-08-10T14:22:34.368Z,1.77
2022-08-10T14:25:09.108Z,2.05
2022-08-10T14:28:01.669Z,1.80
2022-08-10T14:30:30.959Z,2.13
2022-08-10T14:33:00.342Z,1.70
2022-08-10T14:36:18.408Z,2.03
2022-08-10T14:38:19.545Z,1.80
2022-08-10T14:40:52.340Z,1.75
2022-08-10T14:43:28.444Z,1.73
2022-08-10T14:46:05.612Z,2.10
2022-08-10T14:48:40.671Z,1.65
2022-08-10T14:51:08.349Z,1.88
2022-08-10T14:53:37.039Z,2.25
2022-08-10T14:56:08.643Z,2.05
2022-08-10T14:58:39.440Z,1.80
2022-08-10T15:01:26.180Z,1.88
2022-08-10T15:04:17.024Z,2.05
2022-08-10T15:06:55.771Z,2.35
2022-08-10T15:09:28.048Z,2.25
2022-08-10T15:12:15.110Z,1.98
2022-08-10T15:14:48.178Z,2.13
2022-08-10T15:17:37.149Z,2.20
2022-08-10T15:20:14.856Z,2.50
2022-08-10T15:23:30.082Z,2.25
2022-08-10T15:25:59.950Z,2.65
2022-08-10T15:29:24.279Z,1.98
2022-08-10T15:31:22.176Z,1.92
2022-08-10T15:34:10.005Z,1.83
2022-08-10T15:37:02.519Z,1.92
2022-08-10T15:40:25.482Z,2.00
2022-08-10T15:42:52.027Z,2.00
2022-08-10T15:45:18.892Z,1.92
2022-08-10T15:48:03.526Z,1.92
2022-08-10T15:53:49.477Z,2.47
2022-08-10T15:56:28.219Z,2.10
2022-08-10T15:59:09.552Z,2.30
2022-08-10T16:02:04.336Z,2.22
2022-08-10T16:04:35.332Z,2.20
2022-08-10T16:07:08.051Z,2.33
2022-08-10T16:10:25.152Z,2.45
2022-08-10T16:12:59.091Z,2.70
2022-08-10T16:15:29.095Z,2.17
2022-08-10T16:18:09.379Z,1.98
2022-08-10T16:20:52.499Z,2.00
2022-08-10T16:23:30.961Z,2.00
2022-08-10T16:26:15.149Z,2.00
2022-08-10T16:28:52.297Z,1.92
2022-08-10T16:31:22.127Z,1.58
2022-08-10T16:33:52.946Z,1.70
2022-08-10T16:36:22.559Z,2.20
2022-08-10T16:38:51.378Z,1.85
2022-08-10T16:42:00.773Z,2.58
2022-08-10T16:44:10.134Z,1.45
2022-08-10T16:46:42.272Z,2.78
2022-08-10T16:49:09.935Z,1.88
2022-08-10T16:51:38.629Z,2.25
2022-08-10T16:54:07.038Z,1.80
2022-08-10T16:56:48.663Z,1.80
2022-08-10T17:02:05.601Z,2.25
2022-08-10T17:04:33.908Z,1.95
2022-08-10T17:07:07.266Z,1.73
2022-08-10T17:09:36.312Z,1.70
2022-08-10T17:12:11.300Z,2.20
2022-08-10T17:14:42.496Z,2.33
2022-08-10T17:17:24.541Z,1.92
2022-08-10T17:19:56.837Z,2.10
2022-08-10T17:22:44.419Z,1.92
2022-08-10T17:25:21.988Z,1.88
2022-08-10T17:28:21.129Z,2.00
2022-08-10T17:30:57.474Z,2.15
2022-08-10T17:33:29.404Z,2.17
2022-08-10T17:36:02.178Z,2.20
2022-08-10T17:38:31.454Z,2.30
2022-08-10T17:41:06.192Z,2.25
2022-08-10T17:43:58.223Z,2.10
2022-08-10T17:46:26.327Z,2.10
2022-08-10T17:48:55.492Z,2.17
2022-08-10T17:51:27.425Z,2.28
2022-08-10T17:53:59.554Z,2.22
2022-08-10T17:56:31.302Z,2.50
2022-08-10T17:59:01.195Z,1.90
2022-08-10T18:01:38.267Z,2.30
2022-08-10T18:04:14.943Z,2.05
2022-08-10T18:06:43.051Z,1.98
2022-08-10T18:09:17.409Z,2.00
2022-08-10T18:11:48.043Z,2.22
2022-08-10T18:14:16.876Z,2.20
2022-08-10T18:16:44.152Z,2.10
2022-08-10T18:19:13.434Z,2.20
2022-08-10T18:21:49.639Z,2.10
2022-08-10T18:24:19.575Z,1.80
2022-08-10T18:26:49.274Z,2.00
2022-08-10T18:29:29.475Z,2.15
2022-08-10T18:32:04.917Z,2.40
2022-08-10T18:34:44.479Z,2.42
2022-08-10T18:37:21.441Z,1.85
2022-08-10T18:39:50.513Z,2.30
2022-08-10T18:42:24.618Z,2.00
2022-08-10T18:45:07.107Z,2.20
2022-08-10T18:47:41.108Z,2.13
2022-08-10T18:50:34.744Z,2.10
2022-08-10T18:53:11.911Z,2.10
2022-08-10T18:56:08.610Z,2.22
2022-08-10T18:58:49.069Z,2.25
2022-08-10T19:01:30.741Z,2.50
2022-08-10T19:04:35.487Z,2.42
2022-08-10T19:07:12.134Z,1.92
2022-08-10T19:09:48.523Z,2.35
2022-08-10T19:12:42.642Z,2.30
2022-08-10T19:15:40.007Z,2.20
2022-08-10T19:18:22.300Z,2.40
2022-08-10T19:20:55.364Z,2.20
2022-08-10T19:23:24.555Z,2.55
2022-08-10T19:26:37.922Z,2.33
2022-08-10T19:29:02.973Z,2.50
2022-08-10T19:31:58.655Z,2.38
2022-08-10T19:34:37.218Z,2.47
2022-08-10T19:37:40.151Z,2.88
2022-08-10T19:40:14.008Z,2.50
2022-08-10T19:42:48.007Z,2.58
2022-08-10T19:45:56.117Z,2.58
2022-08-10T19:48:18.739Z,2.78
2022-08-10T19:51:06.625Z,2.67
2022-08-10T19:53:56.185Z,2.72
2022-08-10T19:56:44.418Z,2.40
2022-08-10T20:00:16.509Z,2.97
2022-08-10T20:02:24.598Z,2.80
2022-08-10T20:05:36.895Z,2.25
2022-08-10T20:08:35.629Z,2.78
2022-08-10T20:11:10.752Z,3.50
2022-08-10T20:14:22.220Z,2.60
2022-08-10T20:16:51.480Z,2.72
2022-08-10T20:19:20.863Z,2.45
2022-08-10T20:21:56.503Z,2.40
2022-08-10T20:24:29.053Z,2.60
2022-08-10T20:27:56.818Z,2.38
2022-08-10T20:30:04.722Z,3.25
2022-08-10T20:32:40.699Z,2.70
2022-08-10T20:35:24.360Z,2.60
2022-08-10T20:38:04.168Z,2.80
2022-08-10T20:40:49.420Z,2.58
2022-08-10T20:43:34.048Z,2.50
2022-08-10T20:46:11.184Z,2.70
2022-08-10T20:48:46.437Z,2.40
2022-08-10T20:51:21.816Z,2.35
2022-08-10T20:53:56.256Z,2.90
2022-08-10T20:56:48.751Z,2.80
2022-08-10T20:59:23.948Z,2.40
2022-08-10T21:02:20.841Z,2.80
2022-08-10T21:04:58.545Z,2.75
2022-08-10T21:07:59.876Z,2.27
2022-08-10T21:10:56.203Z,2.47
2022-08-10T21:14:07.266Z,2.47
2022-08-10T21:16:47.266Z,2.35
2022-08-10T21:19:14.114Z,2.45
2022-08-10T21:21:56.814Z,2.28
2022-08-10T21:24:40.852Z,2.90
2022-08-10T21:27:28.817Z,2.60
2022-08-10T21:30:09.971Z,2.30
2022-08-10T21:32:51.463Z,2.40
2022-08-10T21:35:37.168Z,2.28
2022-08-10T21:38:16.704Z,2.17
2022-08-10T21:41:17.520Z,2.40
2022-08-10T21:44:35.277Z,2.10
2022-08-10T21:47:43.444Z,2.88
2022-08-10T21:53:57.055Z,2.50
2022-08-10T21:57:03.040Z,2.10
2022-08-10T22:00:31.622Z,2.97
2022-08-10T22:03:19.008Z,2.53
2022-08-10T22:06:10.727Z,2.65
2022-08-10T22:09:02.572Z,2.67
2022-08-10T22:11:52.511Z,2.70
2022-08-10T22:14:47.691Z,2.45
2022-08-10T22:18:03.363Z,2.25
2022-08-10T22:20:49.868Z,2.90
2022-08-10T22:23:47.986Z,2.33
2022-08-10T22:26:40.237Z,2.33
2022-08-10T22:29:42.564Z,2.30
2022-08-10T22:32:43.510Z,2.47
2022-08-10T22:36:04.309Z,2.85
2022-08-10T22:39:12.580Z,2.17
2022-08-10T22:42:15.351Z,2.70
2022-08-10T22:45:03.184Z,2.50
2022-08-10T22:47:51.533Z,2.50
2022-08-10T22:50:24.721Z,2.47
2022-08-10T22:53:04.683Z,3.00
2022-08-10T22:55:56.020Z,3.20
2022-08-10T22:58:41.165Z,2.42
2022-08-10T23:01:36.404Z,2.75
2022-08-10T23:04:11.387Z,2.22
2022-08-10T23:06:40.370Z,2.40
2022-08-10T23:09:09.885Z,2.65
2022-08-10T23:11:40.387Z,2.45
2022-08-10T23:14:11.060Z,2.38
2022-08-10T23:17:01.949Z,2.53
2022-08-10T23:19:37.875Z,2.63
2022-08-10T23:22:10.329Z,2.47
2022-08-10T23:24:53.626Z,2.38
2022-08-10T23:27:37.432Z,2.58
2022-08-10T23:30:12.802Z,2.70
2022-08-10T23:32:48.682Z,2.40
2022-08-10T23:36:31.132Z,2.38
2022-08-10T23:38:10.681Z,2.83
2022-08-10T23:40:38.098Z,2.42
2022-08-10T23:43:05.438Z,2.40
2022-08-10T23:45:53.064Z,3.45
2022-08-10T23:48:23.159Z,2.55
2022-08-10T23:50:58.631Z,2.28
2022-08-10T23:53:33.005Z,2.72
2022-08-10T23:56:02.174Z,2.65
2022-08-10T23:58:39.842Z,2.70
